Weather History for Fairfield, IA

Change the Weather History Date:

Thursday, October 4, 2012

  Actual Average Record
Temperature  
Mean Temperature 54 °F -  
Max Temperature 64 °F 70 °F 86 °F (2005)
Min Temperature 44 °F 46 °F 33 °F (1989)
Degree Days  
Heating Degree Days 11    
Growing Degree Days 4 (Base 50)    
Moisture  
Dew Point 46 °F    
Average Humidity 73    
Maximum Humidity 87    
Minimum Humidity 55    
Precipitation  
Precipitation 0.35 in - - ()
Sea Level Pressure  
Sea Level Pressure 30.11 in    
Wind  
Wind Speed 8 mph (WSW)    
Max Wind Speed 21 mph    
Max Gust Speed 26 mph    
Visibility 10 miles    
Events Rain    
Averages and records for this station are not official NWS values.
T = Trace of Precipitation, MM = Missing Value Source: NWS Daily Summary

Daily Weather History Graph

Daily Weather History Graph

Search for Another Location

Airport:

Trip Planner

Search our weather history database for the weather conditions in past years. The results will help you decide how hot, cold, wet, or windy it might be!

Date:

Astronomy

Oct. 04, 2012 Rise Set
Actual Time 7:08 AM CDT 6:44 PM CDT
Civil Twilight 6:40 AM CDT 7:11 PM CDT
Nautical Twilight 6:08 AM CDT 7:43 PM CDT
Astronomical Twilight 5:36 AM CDT 8:15 PM CDT
Moon 9:17 PM CDT (10/4) 11:27 AM CDT (10/4)
Length of Visible Light 12h 30m
Length of Day
11h 35m
Waning Gibbous, 82% of the Moon is Illuminated
Oct 4
Waning Gibbous
Oct 8
Last Quarter
Oct 15
New
Oct 21
First Quarter
Oct 29
Full

Hourly Weather History & Observations

Time (CDT) Temp. Windchill Dew Point Humidity Pressure Visibility Wind Dir Wind Speed Gust Speed Precip Events Conditions
12:15 AM 60.8 °F - 51.8 °F 72% 30.00 in 10.0 mi South 5.8 mph - N/A   Clear
12:35 AM 60.8 °F - 51.8 °F 72% 30.00 in 10.0 mi South 5.8 mph - N/A   Clear
12:55 AM 60.8 °F - 51.8 °F 72% 30.00 in 7.0 mi South 8.1 mph - N/A   Clear
1:15 AM 60.8 °F - 51.8 °F 72% 30.00 in 10.0 mi South 5.8 mph - N/A   Clear
1:35 AM 60.8 °F - 51.8 °F 72% 30.01 in 10.0 mi SSW 5.8 mph - N/A   Clear
1:55 AM 60.8 °F - 51.8 °F 72% 30.01 in 10.0 mi South 5.8 mph - N/A   Clear
2:15 AM 60.8 °F - 51.8 °F 72% 30.01 in 10.0 mi South 5.8 mph - N/A   Clear
2:35 AM 59.0 °F - 51.8 °F 77% 30.01 in 10.0 mi South 5.8 mph - N/A   Clear
2:55 AM 59.0 °F - 51.8 °F 77% 30.00 in 10.0 mi South 6.9 mph - N/A   Clear
3:15 AM 59.0 °F - 51.8 °F 77% 30.00 in 10.0 mi South 6.9 mph - N/A   Clear
3:35 AM 59.0 °F - 51.8 °F 77% 30.00 in 10.0 mi South 6.9 mph - N/A   Clear
3:55 AM 57.2 °F - 51.8 °F 82% 29.99 in 10.0 mi South 6.9 mph - N/A   Scattered Clouds
4:15 AM 60.8 °F - 51.8 °F 72% 29.99 in 10.0 mi South 6.9 mph - N/A   Overcast
4:35 AM 60.8 °F - 51.8 °F 72% 29.98 in 10.0 mi South 8.1 mph - N/A   Mostly Cloudy
4:55 AM 60.8 °F - 51.8 °F 72% 29.99 in 10.0 mi South 8.1 mph - N/A   Scattered Clouds
5:15 AM 60.8 °F - 51.8 °F 72% 29.99 in 10.0 mi South 9.2 mph - N/A   Clear
5:35 AM 60.8 °F - 51.8 °F 72% 29.99 in 10.0 mi South 8.1 mph - N/A   Clear
5:55 AM 60.8 °F - 51.8 °F 72% 29.98 in 10.0 mi South 8.1 mph - N/A   Mostly Cloudy
6:15 AM 60.8 °F - 51.8 °F 72% 30.00 in 10.0 mi SSW 8.1 mph - N/A   Overcast
6:35 AM 62.6 °F - 53.6 °F 72% 30.00 in 10.0 mi SW 9.2 mph - N/A   Overcast
6:55 AM 64.4 °F - 53.6 °F 68% 30.01 in 10.0 mi SW 9.2 mph - N/A   Scattered Clouds
7:15 AM 64.4 °F - 53.6 °F 68% 30.02 in 10.0 mi SW 8.1 mph - N/A   Mostly Cloudy
7:35 AM 62.6 °F - 51.8 °F 68% 30.03 in 10.0 mi WSW 11.5 mph 16.1 mph N/A   Mostly Cloudy
7:55 AM 60.8 °F - 46.4 °F 59% 30.04 in 10.0 mi WNW 17.3 mph - N/A   Mostly Cloudy
8:15 AM 59.0 °F - 44.6 °F 59% 30.05 in 10.0 mi WNW 15.0 mph - N/A   Scattered Clouds
8:35 AM 57.2 °F - 42.8 °F 59% 30.05 in 10.0 mi WNW 11.5 mph - N/A   Scattered Clouds
8:55 AM 57.2 °F - 42.8 °F 59% 30.08 in 10.0 mi WNW 15.0 mph - N/A   Clear
9:15 AM 57.2 °F - 42.8 °F 59% 30.07 in 10.0 mi WNW 13.8 mph 18.4 mph N/A   Clear
9:35 AM 57.2 °F - 42.8 °F 59% 30.08 in 10.0 mi NW 12.7 mph - N/A   Clear
9:55 AM 59.0 °F - 42.8 °F 55% 30.09 in 10.0 mi WNW 17.3 mph - N/A   Scattered Clouds
10:15 AM 57.2 °F - 42.8 °F 59% 30.10 in 10.0 mi NW 20.7 mph 26.5 mph N/A   Scattered Clouds
10:35 AM 55.4 °F - 44.6 °F 67% 30.13 in 7.0 mi WNW 10.4 mph 23.0 mph N/A Rain Light Rain
10:55 AM 57.2 °F - 44.6 °F 63% 30.12 in 10.0 mi WNW 11.5 mph 17.3 mph N/A   Scattered Clouds
11:15 AM 57.2 °F - 44.6 °F 63% 30.11 in 10.0 mi WNW 10.4 mph - N/A   Scattered Clouds
11:35 AM 57.2 °F - 44.6 °F 63% 30.11 in 10.0 mi WNW 9.2 mph - N/A   Clear
11:55 AM 55.4 °F - 44.6 °F 67% 30.14 in 10.0 mi West 12.7 mph 21.9 mph N/A Rain Light Rain
12:15 PM 55.4 °F - 44.6 °F 67% 30.14 in 10.0 mi WNW 10.4 mph 18.4 mph N/A   Light Drizzle
12:35 PM 53.6 °F - 44.6 °F 72% 30.19 in 10.0 mi West 10.4 mph - N/A Rain Rain
12:55 PM 51.8 °F - 44.6 °F 76% 30.17 in 10.0 mi West 10.4 mph 17.3 mph 0.01 in Rain Rain
1:35 PM 50.0 °F - 42.8 °F 76% 30.17 in 10.0 mi WNW 10.4 mph - 0.06 in Rain Rain
1:55 PM 50.0 °F - 42.8 °F 76% 30.15 in 10.0 mi West 4.6 mph - 0.14 in Rain Heavy Rain
2:15 PM 50.0 °F - 44.6 °F 82% 30.18 in 10.0 mi West 10.4 mph - 0.06 in Rain Light Rain
2:35 PM 50.0 °F - 44.6 °F 82% 30.17 in 10.0 mi WNW 4.6 mph - 0.08 in Rain Light Rain
2:55 PM 50.0 °F - 42.8 °F 76% 30.15 in 10.0 mi WNW 9.2 mph 16.1 mph 0.13 in Rain Rain
3:15 PM 48.2 °F - 42.8 °F 82% 30.18 in 10.0 mi West 11.5 mph - 0.06 in Rain Rain
3:35 PM 48.2 °F - 42.8 °F 82% 30.19 in 10.0 mi WSW 6.9 mph - 0.07 in Rain Light Rain
3:55 PM 50.0 °F - 44.6 °F 82% 30.17 in 10.0 mi West 5.8 mph - 0.07 in Rain Light Rain
4:15 PM 50.0 °F - 44.6 °F 82% 30.17 in 10.0 mi WSW 5.8 mph - N/A   Overcast
4:35 PM 51.8 °F - 44.6 °F 76% 30.17 in 10.0 mi WSW 6.9 mph - N/A   Overcast
4:55 PM 51.8 °F - 44.6 °F 76% 30.18 in 10.0 mi WSW 6.9 mph - N/A   Overcast
5:15 PM 51.8 °F - 44.6 °F 76% 30.18 in 10.0 mi WSW 5.8 mph - N/A   Overcast
5:55 PM 51.8 °F - 44.6 °F 76% 30.18 in 10.0 mi SW 4.6 mph - N/A   Clear
6:15 PM 51.8 °F - 44.6 °F 76% 30.18 in 10.0 mi SW 5.8 mph - N/A   Clear
6:35 PM 50.0 °F - 44.6 °F 82% 30.18 in 10.0 mi SW 5.8 mph - N/A   Clear
6:55 PM 48.2 °F - 42.8 °F 82% 30.19 in 10.0 mi SW 5.8 mph - N/A   Clear
7:15 PM 48.2 °F - 42.8 °F 82% 30.19 in 10.0 mi SW 4.6 mph - N/A   Clear
7:35 PM 46.4 °F 43.5 °F 42.8 °F 87% 30.19 in 10.0 mi SW 5.8 mph - N/A   Clear
7:55 PM 46.4 °F 45.2 °F 41.0 °F 81% 30.19 in 10.0 mi WSW 3.5 mph - N/A   Clear
8:15 PM 46.4 °F 43.5 °F 42.8 °F 87% 30.20 in 10.0 mi WSW 5.8 mph - N/A   Clear
8:35 PM 46.4 °F 43.5 °F 41.0 °F 81% 30.21 in 10.0 mi SW 5.8 mph - N/A   Clear
8:55 PM 46.4 °F 43.5 °F 41.0 °F 81% 30.21 in 10.0 mi WSW 5.8 mph - N/A   Clear
9:15 PM 44.6 °F 41.4 °F 39.2 °F 81% 30.21 in 10.0 mi West 5.8 mph - N/A   Clear
9:35 PM 44.6 °F 41.4 °F 39.2 °F 81% 30.22 in 10.0 mi WSW 5.8 mph - N/A   Clear
9:55 PM 44.6 °F 40.7 °F 39.2 °F 81% 30.21 in 10.0 mi WNW 6.9 mph - N/A   Clear
10:15 PM 46.4 °F 42.4 °F 39.2 °F 76% 30.22 in 10.0 mi WNW 8.1 mph - N/A   Clear
10:35 PM 46.4 °F 42.4 °F 39.2 °F 76% 30.20 in 10.0 mi NW 8.1 mph - N/A   Clear
10:55 PM 46.4 °F 43.5 °F 39.2 °F 76% 30.20 in 10.0 mi NW 5.8 mph - N/A   Clear
11:15 PM 46.4 °F 44.3 °F 37.4 °F 71% 30.20 in 10.0 mi NW 4.6 mph - N/A   Clear
11:35 PM 46.4 °F 43.5 °F 39.2 °F 76% 30.22 in 10.0 mi West 5.8 mph - N/A   Clear
11:55 PM 46.4 °F 42.9 °F 39.2 °F 76% 30.25 in 10.0 mi West 6.9 mph - N/A   Clear